createdAt,value
2023-11-21T00:02:06.436Z,45.74
2023-11-21T00:04:55.305Z,45.65
2023-11-21T00:07:44.295Z,45.66
2023-11-21T00:10:33.166Z,45.81
2023-11-21T00:13:21.919Z,45.56
2023-11-21T00:16:10.837Z,45.76
2023-11-21T00:19:00.916Z,45.68
2023-11-21T00:21:49.673Z,45.74
2023-11-21T00:24:38.434Z,45.74
2023-11-21T00:27:27.211Z,45.66
2023-11-21T00:30:17.167Z,45.57
2023-11-21T00:33:06.630Z,45.63
2023-11-21T00:35:56.854Z,45.62
2023-11-21T00:38:45.601Z,45.73
2023-11-21T00:41:34.530Z,45.61
2023-11-21T00:44:23.347Z,45.45
2023-11-21T00:47:12.389Z,45.42
2023-11-21T00:50:01.263Z,45.29
2023-11-21T00:52:52.848Z,45.52
2023-11-21T00:55:41.953Z,45.46
2023-11-21T00:58:31.533Z,45.45
2023-11-21T01:01:20.706Z,45.35
2023-11-21T01:04:09.450Z,45.30
2023-11-21T01:06:58.192Z,45.37
2023-11-21T01:09:48.406Z,45.26
2023-11-21T01:12:37.727Z,45.41
2023-11-21T01:15:27.293Z,45.24
2023-11-21T01:18:16.012Z,45.20
2023-11-21T01:21:04.952Z,45.22
2023-11-21T01:23:53.619Z,45.23
2023-11-21T01:26:43.838Z,45.17
2023-11-21T01:29:32.518Z,45.26
2023-11-21T01:32:21.491Z,45.05
2023-11-21T01:35:11.412Z,45.24
2023-11-21T01:38:00.089Z,45.07
2023-11-21T01:40:48.972Z,44.94
2023-11-21T01:43:39.175Z,45.14
2023-11-21T01:46:28.069Z,45.09
2023-11-21T01:49:16.837Z,45.07
2023-11-21T01:52:06.716Z,45.15
2023-11-21T01:54:55.693Z,45.15
2023-11-21T01:57:44.380Z,44.99
2023-11-21T02:00:34.600Z,44.93
2023-11-21T02:03:23.440Z,45.06
2023-11-21T02:06:12.154Z,44.99
2023-11-21T02:09:01.977Z,44.97
2023-11-21T02:11:50.741Z,44.95
2023-11-21T02:14:39.726Z,45.00
2023-11-21T02:17:29.877Z,44.82
2023-11-21T02:20:19.008Z,45.05
2023-11-21T02:23:09.204Z,44.84
2023-11-21T02:25:58.036Z,44.77
2023-11-21T02:28:46.792Z,44.88
2023-11-21T02:31:35.685Z,44.78
2023-11-21T02:34:26.285Z,44.80
2023-11-21T02:37:15.501Z,44.79
2023-11-21T02:40:07.835Z,44.89
2023-11-21T02:42:56.633Z,44.89
2023-11-21T02:45:45.464Z,44.90
2023-11-21T02:48:34.209Z,44.71
2023-11-21T02:51:22.922Z,44.87
2023-11-21T02:54:12.257Z,44.78
2023-11-21T02:57:02.364Z,44.80
2023-11-21T02:59:51.341Z,44.80
2023-11-21T03:02:41.255Z,44.83
2023-11-21T03:05:30.762Z,44.76
2023-11-21T03:08:19.580Z,44.72
2023-11-21T03:11:09.347Z,44.70
2023-11-21T03:13:59.448Z,44.58
2023-11-21T03:16:48.120Z,44.78
2023-11-21T03:19:36.865Z,44.61
2023-11-21T03:22:25.681Z,44.77
2023-11-21T03:25:15.296Z,44.74
2023-11-21T03:28:04.570Z,44.49
2023-11-21T03:30:54.606Z,44.72
2023-11-21T03:33:43.408Z,44.59
2023-11-21T03:36:32.056Z,44.56
2023-11-21T03:39:21.643Z,44.61
2023-11-21T03:42:10.393Z,44.60
2023-11-21T03:44:59.121Z,44.74
2023-11-21T03:47:49.196Z,44.69
2023-11-21T03:50:38.010Z,44.67
2023-11-21T03:53:26.807Z,44.60
2023-11-21T03:56:16.521Z,44.48
2023-11-21T03:59:05.328Z,44.68
2023-11-21T04:01:54.029Z,44.61
2023-11-21T04:04:44.457Z,44.65
2023-11-21T04:07:33.285Z,44.49
2023-11-21T04:10:23.071Z,44.58
2023-11-21T04:13:11.827Z,44.59
2023-11-21T04:16:00.619Z,44.52
2023-11-21T04:18:49.310Z,44.52
2023-11-21T04:21:39.366Z,44.42
2023-11-21T04:24:28.220Z,44.61
2023-11-21T04:27:19.207Z,44.48
2023-11-21T04:30:11.153Z,44.59
2023-11-21T04:33:00.005Z,44.46
2023-11-21T04:35:49.067Z,44.53
2023-11-21T04:38:39.190Z,44.55
2023-11-21T04:41:27.881Z,44.61
2023-11-21T04:44:17.736Z,44.59
2023-11-21T04:47:07.227Z,44.48
2023-11-21T04:49:56.496Z,44.44
2023-11-21T04:52:45.190Z,44.46
2023-11-21T04:55:35.334Z,44.39
2023-11-21T04:58:24.220Z,44.38
2023-11-21T05:01:13.185Z,44.33
2023-11-21T05:04:02.029Z,44.40
2023-11-21T05:06:51.040Z,44.64
2023-11-21T05:09:45.092Z,44.43
2023-11-21T05:12:36.214Z,44.49
2023-11-21T05:15:26.139Z,44.54
2023-11-21T05:18:15.514Z,44.52
2023-11-21T05:21:04.762Z,44.50
2023-11-21T05:23:53.705Z,44.53
2023-11-21T05:26:42.364Z,44.46
2023-11-21T05:29:32.453Z,44.43
2023-11-21T05:32:21.145Z,44.59
2023-11-21T05:35:13.296Z,44.32
2023-11-21T05:38:02.036Z,44.53
2023-11-21T05:40:51.209Z,44.42
2023-11-21T05:43:40.030Z,44.53
2023-11-21T05:46:30.285Z,44.49
2023-11-21T05:49:23.097Z,44.40
2023-11-21T05:52:11.874Z,44.56
2023-11-21T05:55:00.743Z,44.34
2023-11-21T05:57:49.480Z,44.45
2023-11-21T06:00:38.709Z,44.23
2023-11-21T06:03:28.902Z,44.38
2023-11-21T06:06:17.746Z,44.34
2023-11-21T06:09:07.018Z,44.49
2023-11-21T06:11:55.716Z,44.22
2023-11-21T06:14:44.435Z,44.51
2023-11-21T06:17:33.290Z,44.48
2023-11-21T06:20:24.457Z,44.44
2023-11-21T06:23:13.271Z,44.53
2023-11-21T06:26:02.266Z,44.87
2023-11-21T06:28:52.596Z,44.57
2023-11-21T06:31:42.024Z,44.52
2023-11-21T06:34:31.498Z,44.63
2023-11-21T06:37:22.379Z,44.62
2023-11-21T06:40:11.649Z,44.92
2023-11-21T06:43:01.533Z,44.91
2023-11-21T06:45:50.347Z,45.33
2023-11-21T06:48:39.681Z,45.11
2023-11-21T06:51:28.651Z,45.35
2023-11-21T06:54:18.698Z,45.91
2023-11-21T06:57:07.464Z,45.99
2023-11-21T06:59:57.056Z,45.29
2023-11-21T07:02:46.202Z,45.49
2023-11-21T07:05:35.079Z,45.49
2023-11-21T07:08:23.819Z,45.74
2023-11-21T07:11:13.930Z,45.60
2023-11-21T07:14:06.707Z,45.44
2023-11-21T07:16:55.434Z,45.44
2023-11-21T07:19:44.145Z,45.31
2023-11-21T07:22:32.982Z,45.36
2023-11-21T07:25:23.412Z,45.38
2023-11-21T07:28:13.593Z,45.56
2023-11-21T07:31:02.422Z,45.77
2023-11-21T07:33:51.196Z,45.81
2023-11-21T07:36:40.016Z,45.75
2023-11-21T07:39:28.672Z,45.76
2023-11-21T07:42:17.934Z,45.71
2023-11-21T07:45:09.959Z,45.63
2023-11-21T07:47:58.825Z,46.06
2023-11-21T07:50:49.147Z,45.74
2023-11-21T07:53:37.953Z,45.29
2023-11-21T07:56:26.733Z,45.16
2023-11-21T07:59:15.458Z,45.48
2023-11-21T08:02:05.944Z,45.60
2023-11-21T08:04:54.726Z,45.33
2023-11-21T08:07:43.688Z,45.40
2023-11-21T08:10:32.507Z,45.29
2023-11-21T08:13:21.292Z,45.17
2023-11-21T08:16:10.764Z,45.78
2023-11-21T08:19:01.066Z,47.32
2023-11-21T08:21:49.874Z,46.83
2023-11-21T08:24:38.587Z,46.53
2023-11-21T08:27:27.461Z,46.50
2023-11-21T08:30:18.162Z,46.37
2023-11-21T08:33:06.955Z,45.92
2023-11-21T08:35:57.093Z,46.29
2023-11-21T08:38:46.056Z,45.97
2023-11-21T08:41:34.973Z,46.28
2023-11-21T08:44:24.278Z,46.20
2023-11-21T08:47:13.151Z,46.67
2023-11-21T08:50:01.868Z,46.58
2023-11-21T08:52:52.537Z,46.78
2023-11-21T08:55:41.558Z,46.80
2023-11-21T08:58:30.460Z,47.25
2023-11-21T09:01:19.588Z,47.04
2023-11-21T09:04:09.445Z,46.38
2023-11-21T09:06:58.137Z,46.84
2023-11-21T09:09:48.836Z,47.23
2023-11-21T09:12:38.516Z,46.89
2023-11-21T09:15:27.388Z,46.78
2023-11-21T09:18:16.592Z,46.77
2023-11-21T09:21:06.288Z,46.62
2023-11-21T09:23:55.422Z,46.50
2023-11-21T09:26:46.688Z,47.78
2023-11-21T09:29:35.446Z,46.71
2023-11-21T09:32:24.151Z,46.45
2023-11-21T09:35:13.051Z,46.42
2023-11-21T09:38:03.059Z,46.57
2023-11-21T09:40:54.112Z,46.70
2023-11-21T09:43:46.153Z,46.56
2023-11-21T09:46:35.006Z,46.81
2023-11-21T09:49:26.586Z,47.03
2023-11-21T09:52:17.255Z,49.36
2023-11-21T09:55:07.067Z,47.55
2023-11-21T09:57:56.150Z,47.83
2023-11-21T10:00:47.252Z,48.70
2023-11-21T10:03:39.474Z,50.87
2023-11-21T10:06:28.692Z,49.96
2023-11-21T10:09:17.531Z,48.81
2023-11-21T10:12:07.889Z,48.54
2023-11-21T10:14:57.204Z,49.50
2023-11-21T10:17:47.366Z,54.82
2023-11-21T10:20:36.256Z,55.42
2023-11-21T10:23:25.229Z,52.98
2023-11-21T10:26:28.917Z,54.10
2023-11-21T10:29:20.489Z,52.04
2023-11-21T10:32:09.505Z,52.45
2023-11-21T10:35:07.649Z,50.91
2023-11-21T10:38:02.890Z,51.54
2023-11-21T10:40:51.984Z,51.69
2023-11-21T10:43:41.263Z,50.81
2023-11-21T10:46:31.855Z,50.14
2023-11-21T10:49:21.517Z,50.05
2023-11-21T10:52:18.761Z,50.14
2023-11-21T10:55:22.627Z,50.65
2023-11-21T10:58:12.354Z,49.76
2023-11-21T11:01:01.183Z,49.94
2023-11-21T11:03:50.635Z,51.71
2023-11-21T11:06:40.307Z,49.93
2023-11-21T11:09:30.382Z,50.11
2023-11-21T11:12:20.507Z,51.35
2023-11-21T11:15:11.307Z,52.86
2023-11-21T11:18:00.229Z,52.33
2023-11-21T11:20:49.149Z,52.09
2023-11-21T11:23:56.627Z,51.95
2023-11-21T11:26:50.048Z,51.94
2023-11-21T11:29:43.456Z,51.55
2023-11-21T11:32:43.020Z,52.22
2023-11-21T11:35:36.692Z,52.69
2023-11-21T11:38:25.399Z,53.14
2023-11-21T11:41:14.360Z,52.40
2023-11-21T11:44:05.488Z,54.00
2023-11-21T11:46:55.089Z,53.48
2023-11-21T11:50:05.293Z,53.34
2023-11-21T11:52:56.290Z,53.43
2023-11-21T11:55:45.124Z,53.90
2023-11-21T11:58:40.229Z,53.55
2023-11-21T12:01:30.696Z,52.99
2023-11-21T12:04:36.766Z,53.44
2023-11-21T12:07:25.924Z,52.78
2023-11-21T12:10:19.060Z,52.90
2023-11-21T12:13:09.841Z,53.30
2023-11-21T12:15:58.638Z,53.44
2023-11-21T12:18:48.780Z,53.16
2023-11-21T12:21:38.522Z,53.04
2023-11-21T12:24:30.124Z,52.43
2023-11-21T12:27:19.515Z,52.42
2023-11-21T12:30:14.640Z,52.11
2023-11-21T12:33:04.125Z,51.93
2023-11-21T12:35:54.991Z,53.06
2023-11-21T12:38:44.067Z,53.13
2023-11-21T12:41:32.866Z,51.55
2023-11-21T12:44:25.147Z,51.83
2023-11-21T12:47:16.141Z,51.45
2023-11-21T12:50:15.339Z,51.46
2023-11-21T12:53:07.199Z,51.33
2023-11-21T12:55:59.571Z,51.19
2023-11-21T12:58:49.267Z,51.41
2023-11-21T13:01:38.961Z,51.23
2023-11-21T13:04:33.824Z,51.29
2023-11-21T13:07:23.809Z,50.99
2023-11-21T13:10:13.957Z,50.80
2023-11-21T13:13:06.303Z,50.72
2023-11-21T13:15:57.349Z,50.54
2023-11-21T13:18:46.371Z,50.56
2023-11-21T13:21:36.353Z,50.63
2023-11-21T13:24:25.256Z,50.56
2023-11-21T13:27:16.578Z,50.37
2023-11-21T13:30:09.699Z,51.28
2023-11-21T13:33:03.132Z,50.42
2023-11-21T13:35:53.184Z,50.44
2023-11-21T13:38:44.556Z,49.85
2023-11-21T13:41:33.339Z,52.02
2023-11-21T13:44:30.651Z,52.29
2023-11-21T13:47:19.369Z,52.71
2023-11-21T13:50:18.291Z,53.05
2023-11-21T13:53:17.276Z,52.98
2023-11-21T13:56:07.471Z,52.38
2023-11-21T13:58:56.998Z,52.59
2023-11-21T14:01:57.611Z,51.96
2023-11-21T14:04:56.301Z,52.81
2023-11-21T14:07:49.166Z,52.77
2023-11-21T14:10:44.041Z,52.50
2023-11-21T14:13:32.890Z,52.18
2023-11-21T14:16:23.024Z,51.99
2023-11-21T14:19:17.226Z,52.25
2023-11-21T14:22:06.669Z,52.02
2023-11-21T14:24:59.957Z,53.00
2023-11-21T14:27:48.855Z,51.52
2023-11-21T14:30:37.636Z,51.68
2023-11-21T14:33:26.393Z,51.26
2023-11-21T14:36:18.498Z,51.30
2023-11-21T14:39:10.442Z,51.16
2023-11-21T14:42:00.748Z,51.10
2023-11-21T14:44:49.483Z,50.84
2023-11-21T14:47:39.796Z,50.62
2023-11-21T14:50:45.137Z,51.58
2023-11-21T14:53:52.404Z,51.18
2023-11-21T14:56:40.505Z,51.44
2023-11-21T14:59:29.245Z,51.38
2023-11-21T15:02:18.456Z,51.66
2023-11-21T15:05:09.882Z,51.34
2023-11-21T15:07:58.250Z,51.23
2023-11-21T15:10:50.853Z,51.00
2023-11-21T15:13:39.963Z,50.74
2023-11-21T15:16:28.748Z,51.40
2023-11-21T15:19:19.739Z,50.84
2023-11-21T15:22:08.793Z,50.74
2023-11-21T15:24:58.982Z,50.46
2023-11-21T15:27:51.270Z,50.47
2023-11-21T15:30:40.105Z,50.45
2023-11-21T15:33:29.170Z,50.29
2023-11-21T15:36:18.083Z,50.31
2023-11-21T15:39:08.822Z,50.32
2023-11-21T15:41:57.535Z,50.19
2023-11-21T15:44:47.696Z,49.99
2023-11-21T15:47:36.986Z,50.10
2023-11-21T15:50:25.935Z,50.04
2023-11-21T15:53:14.950Z,49.82
2023-11-21T15:56:05.341Z,49.88
2023-11-21T15:58:54.267Z,49.92
2023-11-21T16:01:47.077Z,49.76
2023-11-21T16:04:38.053Z,49.66
2023-11-21T16:07:26.779Z,50.21
2023-11-21T16:10:16.384Z,50.41
2023-11-21T16:13:05.331Z,48.62
2023-11-21T16:15:55.424Z,49.37
2023-11-21T16:18:45.518Z,49.57
2023-11-21T16:21:34.240Z,49.76
2023-11-21T16:24:24.205Z,49.46
2023-11-21T16:27:12.965Z,49.55
2023-11-21T16:30:01.811Z,50.13
2023-11-21T16:32:50.805Z,49.72
2023-11-21T16:35:42.935Z,49.36
2023-11-21T16:38:31.709Z,49.37
2023-11-21T16:41:20.582Z,49.50
2023-11-21T16:44:16.040Z,49.31
2023-11-21T16:47:06.985Z,49.41
2023-11-21T16:49:56.190Z,49.38
2023-11-21T16:52:46.825Z,49.22
2023-11-21T16:55:35.971Z,49.17
2023-11-21T16:58:24.755Z,49.22
2023-11-21T17:01:14.054Z,49.15
2023-11-21T17:04:03.813Z,49.13
2023-11-21T17:06:52.901Z,49.25
2023-11-21T17:09:47.603Z,49.22
2023-11-21T17:12:36.417Z,49.31
2023-11-21T17:15:25.617Z,49.11
2023-11-21T17:18:14.420Z,49.18
2023-11-21T17:21:03.616Z,49.16
2023-11-21T17:23:53.090Z,49.93
2023-11-21T17:26:45.037Z,49.25
2023-11-21T17:29:33.732Z,49.35
2023-11-21T17:32:22.855Z,49.79
2023-11-21T17:35:12.596Z,49.51
2023-11-21T17:38:02.591Z,49.92
2023-11-21T17:40:51.501Z,50.45
2023-11-21T17:43:43.033Z,49.93
2023-11-21T17:46:32.395Z,50.80
2023-11-21T17:49:21.264Z,50.31
2023-11-21T17:52:10.138Z,50.89
2023-11-21T17:54:58.957Z,50.63
2023-11-21T17:57:47.729Z,50.01
2023-11-21T18:00:37.966Z,50.38
2023-11-21T18:03:27.056Z,50.77
2023-11-21T18:06:16.029Z,49.58
2023-11-21T18:09:05.624Z,50.25
2023-11-21T18:11:54.410Z,50.09
2023-11-21T18:14:44.265Z,50.14
2023-11-21T18:17:34.460Z,50.22
2023-11-21T18:20:23.408Z,50.12
2023-11-21T18:23:13.271Z,49.81
2023-11-21T18:26:02.115Z,49.68
2023-11-21T18:28:51.015Z,49.83
2023-11-21T18:31:42.577Z,49.53
2023-11-21T18:34:32.803Z,49.62
2023-11-21T18:37:21.628Z,49.49
2023-11-21T18:40:12.000Z,49.43
2023-11-21T18:43:00.839Z,50.14
2023-11-21T18:45:50.172Z,49.27
2023-11-21T18:48:39.628Z,49.33
2023-11-21T18:51:29.716Z,49.61
2023-11-21T18:54:18.593Z,49.28
2023-11-21T18:57:07.377Z,49.66
2023-11-21T18:59:56.215Z,49.55
2023-11-21T19:02:45.246Z,49.10
2023-11-21T19:05:35.394Z,48.97
2023-11-21T19:08:25.639Z,49.17
2023-11-21T19:11:14.453Z,48.62
2023-11-21T19:14:03.618Z,48.74
2023-11-21T19:16:52.492Z,48.66
2023-11-21T19:19:41.293Z,48.71
2023-11-21T19:22:30.322Z,48.49
2023-11-21T19:25:20.962Z,48.59
2023-11-21T19:28:09.841Z,48.57
2023-11-21T19:31:00.005Z,48.44
2023-11-21T19:33:49.203Z,48.33
2023-11-21T19:36:42.456Z,48.21
2023-11-21T19:39:31.408Z,48.31
2023-11-21T19:42:21.864Z,48.22
2023-11-21T19:45:13.205Z,48.14
2023-11-21T19:48:02.144Z,48.20
2023-11-21T19:50:51.132Z,48.01
2023-11-21T19:53:40.036Z,48.09
2023-11-21T19:56:28.860Z,47.93
2023-11-21T19:59:21.045Z,47.99
2023-11-21T20:02:10.050Z,47.80
2023-11-21T20:04:59.285Z,48.03
2023-11-21T20:07:48.827Z,48.10
2023-11-21T20:10:39.396Z,48.16
2023-11-21T20:13:28.172Z,48.03
2023-11-21T20:16:19.861Z,48.56
2023-11-21T20:19:09.433Z,46.66
2023-11-21T20:21:58.497Z,47.37
2023-11-21T20:24:48.360Z,47.94
2023-11-21T20:27:37.096Z,47.87
2023-11-21T20:30:28.958Z,47.78
2023-11-21T20:33:19.312Z,47.64
2023-11-21T20:36:08.907Z,47.87
2023-11-21T20:38:57.663Z,48.37
2023-11-21T20:41:46.517Z,48.02
2023-11-21T20:44:35.400Z,48.23
2023-11-21T20:47:24.278Z,48.02
2023-11-21T20:50:14.903Z,47.80
2023-11-21T20:53:05.652Z,48.05
2023-11-21T20:55:54.699Z,47.88
2023-11-21T20:58:43.960Z,47.91
2023-11-21T21:01:32.996Z,48.00
2023-11-21T21:04:22.174Z,47.86
2023-11-21T21:07:12.455Z,47.83
2023-11-21T21:10:01.420Z,47.68
2023-11-21T21:12:51.292Z,47.77
2023-11-21T21:15:40.727Z,47.77
2023-11-21T21:18:29.959Z,47.54
2023-11-21T21:21:18.747Z,47.59
2023-11-21T21:24:10.351Z,47.58
2023-11-21T21:26:59.032Z,47.52
2023-11-21T21:29:47.866Z,47.39
2023-11-21T21:32:36.687Z,47.48
2023-11-21T21:35:29.783Z,47.35
2023-11-21T21:38:18.766Z,47.24
2023-11-21T21:41:11.360Z,47.54
2023-11-21T21:44:00.389Z,47.18
2023-11-21T21:46:49.395Z,47.35
2023-11-21T21:49:38.853Z,47.34
2023-11-21T21:52:36.860Z,47.31
2023-11-21T21:55:25.793Z,47.35
2023-11-21T21:58:15.917Z,47.23
2023-11-21T22:01:05.250Z,47.36
2023-11-21T22:03:54.078Z,47.71
2023-11-21T22:06:43.072Z,47.71
2023-11-21T22:09:34.179Z,47.87
2023-11-21T22:12:23.123Z,47.96
2023-11-21T22:15:13.705Z,48.30
2023-11-21T22:18:02.500Z,48.39
2023-11-21T22:20:51.895Z,48.21
2023-11-21T22:23:40.717Z,48.22
2023-11-21T22:26:29.522Z,48.17
2023-11-21T22:29:18.398Z,47.96
2023-11-21T22:32:09.082Z,47.91
2023-11-21T22:34:57.858Z,47.84
2023-11-21T22:37:46.700Z,47.75
2023-11-21T22:40:35.419Z,47.73
2023-11-21T22:43:24.187Z,47.64
2023-11-21T22:46:13.712Z,47.62
2023-11-21T22:49:05.151Z,47.61
2023-11-21T22:51:53.963Z,47.41
2023-11-21T22:54:42.709Z,47.27
2023-11-21T22:57:32.483Z,47.21
2023-11-21T23:00:22.416Z,47.10
2023-11-21T23:03:11.417Z,47.05
2023-11-21T23:06:01.572Z,47.23
2023-11-21T23:08:50.548Z,47.12
2023-11-21T23:11:39.275Z,47.02
2023-11-21T23:14:28.351Z,47.18
2023-11-21T23:17:18.746Z,47.13
2023-11-21T23:20:10.879Z,46.98
2023-11-21T23:23:01.226Z,46.92
2023-11-21T23:25:49.895Z,46.77
2023-11-21T23:28:38.756Z,46.79
2023-11-21T23:31:27.985Z,46.60
2023-11-21T23:34:16.762Z,46.81
2023-11-21T23:37:06.217Z,46.66
2023-11-21T23:39:56.367Z,46.48
2023-11-21T23:42:45.584Z,46.50
2023-11-21T23:45:34.729Z,46.68
2023-11-21T23:48:23.732Z,46.53
2023-11-21T23:51:12.472Z,46.62
2023-11-21T23:54:01.266Z,46.45
2023-11-21T23:56:52.264Z,47.05
2023-11-21T23:59:41.031Z,46.53
